Terminal Aerodrome Forecast
Issued by NWS

Home | Current Version | Previous Version | Text Only | Print | Product List | Glossary On
Versions: 1 2 3 4 5 6 7 8 9 10 11 12 13
000
FTUS44 KLZK 041736
TAFADF
TAF
KADF 041736Z 0418/0518 20006KT P6SM SCT050 BKN250
     FM042000 18006KT P6SM VCTS SCT050CB BKN250
     FM050000 VRB03KT P6SM VCTS SCT050CB BKN250
      TEMPO 0500/0504 -TSRA BKN050CB
     FM050600 VRB03KT P6SM VCTS SCT050CB BKN100 PROB30 0506/0510 3SM
      TSRA BKN050CB
     FM051000 VRB04KT P6SM SCT050 OVC100=

USA.gov is the U.S. government's official web portal to all federal, state and local government web resources and services.